sensor_id;sensor_type;location;lat;lon;timestamp;P1;durP1;ratioP1;P2;durP2;ratioP2
62588;SDS011;58504;48.770;9.148;2022-11-18T00:00:53;2.20;;;0.90;;
62588;SDS011;58504;48.770;9.148;2022-11-18T00:03:21;1.75;;;0.75;;
62588;SDS011;58504;48.770;9.148;2022-11-18T00:05:52;2.05;;;1.30;;
62588;SDS011;58504;48.770;9.148;2022-11-18T00:08:19;1.67;;;0.90;;
62588;SDS011;58504;48.770;9.148;2022-11-18T00:10:46;1.50;;;0.80;;
62588;SDS011;58504;48.770;9.148;2022-11-18T00:13:13;1.80;;;0.90;;
62588;SDS011;58504;48.770;9.148;2022-11-18T00:15:59;0.65;;;0.60;;
62588;SDS011;58504;48.770;9.148;2022-11-18T00:18:28;1.27;;;0.70;;
62588;SDS011;58504;48.770;9.148;2022-11-18T00:20:54;1.30;;;0.70;;
62588;SDS011;58504;48.770;9.148;2022-11-18T00:23:25;0.45;;;0.40;;
62588;SDS011;58504;48.770;9.148;2022-11-18T00:25:52;2.03;;;0.55;;
62588;SDS011;58504;48.770;9.148;2022-11-18T00:28:19;0.85;;;0.70;;
62588;SDS011;58504;48.770;9.148;2022-11-18T00:30:45;0.40;;;0.40;;
62588;SDS011;58504;48.770;9.148;2022-11-18T00:33:12;0.77;;;0.52;;
62588;SDS011;58504;48.770;9.148;2022-11-18T00:35:40;0.95;;;0.52;;
62588;SDS011;58504;48.770;9.148;2022-11-18T00:38:07;1.20;;;0.55;;
62588;SDS011;58504;48.770;9.148;2022-11-18T00:40:34;0.73;;;0.55;;
62588;SDS011;58504;48.770;9.148;2022-11-18T00:43:00;0.52;;;0.50;;
62588;SDS011;58504;48.770;9.148;2022-11-18T00:45:26;1.10;;;0.70;;
62588;SDS011;58504;48.770;9.148;2022-11-18T00:47:53;0.93;;;0.65;;
62588;SDS011;58504;48.770;9.148;2022-11-18T00:50:19;0.57;;;0.57;;
62588;SDS011;58504;48.770;9.148;2022-11-18T00:52:47;0.85;;;0.68;;
62588;SDS011;58504;48.770;9.148;2022-11-18T00:55:14;1.05;;;0.73;;
62588;SDS011;58504;48.770;9.148;2022-11-18T00:57:41;1.00;;;0.60;;
62588;SDS011;58504;48.770;9.148;2022-11-18T01:00:08;1.42;;;0.70;;
62588;SDS011;58504;48.770;9.148;2022-11-18T01:02:35;1.48;;;0.75;;
62588;SDS011;58504;48.770;9.148;2022-11-18T01:05:02;1.25;;;0.70;;
62588;SDS011;58504;48.770;9.148;2022-11-18T01:07:29;0.75;;;0.50;;
62588;SDS011;58504;48.770;9.148;2022-11-18T01:09:58;0.50;;;0.50;;
62588;SDS011;58504;48.770;9.148;2022-11-18T01:12:24;0.50;;;0.50;;
62588;SDS011;58504;48.770;9.148;2022-11-18T01:15:09;0.38;;;0.32;;
62588;SDS011;58504;48.770;9.148;2022-11-18T01:17:35;1.08;;;0.65;;
62588;SDS011;58504;48.770;9.148;2022-11-18T01:20:02;1.13;;;0.68;;
62588;SDS011;58504;48.770;9.148;2022-11-18T01:22:29;0.88;;;0.50;;
62588;SDS011;58504;48.770;9.148;2022-11-18T01:24:57;1.10;;;0.40;;
62588;SDS011;58504;48.770;9.148;2022-11-18T01:27:24;1.00;;;0.65;;
62588;SDS011;58504;48.770;9.148;2022-11-18T01:29:51;0.70;;;0.70;;
62588;SDS011;58504;48.770;9.148;2022-11-18T01:32:17;0.65;;;0.50;;
62588;SDS011;58504;48.770;9.148;2022-11-18T01:34:44;0.77;;;0.50;;
62588;SDS011;58504;48.770;9.148;2022-11-18T01:37:11;0.60;;;0.57;;
62588;SDS011;58504;48.770;9.148;2022-11-18T01:39:38;0.88;;;0.77;;
62588;SDS011;58504;48.770;9.148;2022-11-18T01:42:08;0.75;;;0.40;;
62588;SDS011;58504;48.770;9.148;2022-11-18T01:47:44;0.50;;;0.50;;
62588;SDS011;58504;48.770;9.148;2022-11-18T01:50:14;0.52;;;0.30;;
62588;SDS011;58504;48.770;9.148;2022-11-18T01:52:43;0.40;;;0.40;;
62588;SDS011;58504;48.770;9.148;2022-11-18T01:55:12;1.00;;;0.80;;
62588;SDS011;58504;48.770;9.148;2022-11-18T01:57:44;0.40;;;0.40;;
62588;SDS011;58504;48.770;9.148;2022-11-18T02:00:14;0.60;;;0.60;;
62588;SDS011;58504;48.770;9.148;2022-11-18T02:02:42;1.58;;;0.40;;
62588;SDS011;58504;48.770;9.148;2022-11-18T02:05:09;0.25;;;0.25;;
62588;SDS011;58504;48.770;9.148;2022-11-18T02:07:37;0.70;;;0.70;;
62588;SDS011;58504;48.770;9.148;2022-11-18T02:10:07;1.40;;;0.77;;
62588;SDS011;58504;48.770;9.148;2022-11-18T02:12:35;0.63;;;0.35;;
62588;SDS011;58504;48.770;9.148;2022-11-18T02:15:04;0.43;;;0.43;;
62588;SDS011;58504;48.770;9.148;2022-11-18T02:17:35;0.60;;;0.50;;
62588;SDS011;58504;48.770;9.148;2022-11-18T02:23:14;0.50;;;0.50;;
62588;SDS011;58504;48.770;9.148;2022-11-18T02:29:21;1.13;;;0.43;;
62588;SDS011;58504;48.770;9.148;2022-11-18T02:31:53;0.98;;;0.60;;
62588;SDS011;58504;48.770;9.148;2022-11-18T02:34:27;0.75;;;0.20;;
62588;SDS011;58504;48.770;9.148;2022-11-18T02:37:03;0.93;;;0.40;;
62588;SDS011;58504;48.770;9.148;2022-11-18T02:39:35;0.47;;;0.47;;
62588;SDS011;58504;48.770;9.148;2022-11-18T02:42:06;0.40;;;0.40;;
62588;SDS011;58504;48.770;9.148;2022-11-18T02:44:39;0.47;;;0.40;;
62588;SDS011;58504;48.770;9.148;2022-11-18T02:47:10;0.55;;;0.50;;
62588;SDS011;58504;48.770;9.148;2022-11-18T02:49:41;0.50;;;0.50;;
62588;SDS011;58504;48.770;9.148;2022-11-18T02:52:11;0.43;;;0.43;;
62588;SDS011;58504;48.770;9.148;2022-11-18T02:54:41;0.52;;;0.50;;
62588;SDS011;58504;48.770;9.148;2022-11-18T02:57:11;0.45;;;0.40;;
62588;SDS011;58504;48.770;9.148;2022-11-18T02:59:41;0.45;;;0.43;;
62588;SDS011;58504;48.770;9.148;2022-11-18T03:02:08;0.30;;;0.30;;
62588;SDS011;58504;48.770;9.148;2022-11-18T03:04:40;0.30;;;0.30;;
62588;SDS011;58504;48.770;9.148;2022-11-18T03:07:09;0.73;;;0.50;;
62588;SDS011;58504;48.770;9.148;2022-11-18T03:09:40;0.43;;;0.40;;
62588;SDS011;58504;48.770;9.148;2022-11-18T03:12:10;0.32;;;0.32;;
62588;SDS011;58504;48.770;9.148;2022-11-18T03:14:47;0.57;;;0.47;;
62588;SDS011;58504;48.770;9.148;2022-11-18T03:17:24;0.45;;;0.43;;
62588;SDS011;58504;48.770;9.148;2022-11-18T03:20:05;0.30;;;0.25;;
62588;SDS011;58504;48.770;9.148;2022-11-18T03:22:38;0.50;;;0.50;;
62588;SDS011;58504;48.770;9.148;2022-11-18T03:25:09;0.95;;;0.50;;
62588;SDS011;58504;48.770;9.148;2022-11-18T03:27:43;0.75;;;0.30;;
62588;SDS011;58504;48.770;9.148;2022-11-18T03:30:18;0.68;;;0.68;;
62588;SDS011;58504;48.770;9.148;2022-11-18T03:32:48;0.40;;;0.40;;
62588;SDS011;58504;48.770;9.148;2022-11-18T03:35:19;0.40;;;0.40;;
62588;SDS011;58504;48.770;9.148;2022-11-18T03:37:49;0.43;;;0.35;;
62588;SDS011;58504;48.770;9.148;2022-11-18T03:40:20;0.60;;;0.40;;
62588;SDS011;58504;48.770;9.148;2022-11-18T03:42:50;0.52;;;0.45;;
62588;SDS011;58504;48.770;9.148;2022-11-18T03:45:24;0.57;;;0.30;;
62588;SDS011;58504;48.770;9.148;2022-11-18T03:47:54;0.15;;;0.15;;
62588;SDS011;58504;48.770;9.148;2022-11-18T03:50:26;0.87;;;0.30;;
62588;SDS011;58504;48.770;9.148;2022-11-18T03:52:57;0.70;;;0.32;;
62588;SDS011;58504;48.770;9.148;2022-11-18T03:55:27;0.30;;;0.28;;
62588;SDS011;58504;48.770;9.148;2022-11-18T03:57:59;0.45;;;0.45;;
62588;SDS011;58504;48.770;9.148;2022-11-18T04:00:31;0.32;;;0.32;;
62588;SDS011;58504;48.770;9.148;2022-11-18T04:03:02;0.40;;;0.30;;
62588;SDS011;58504;48.770;9.148;2022-11-18T04:05:29;0.63;;;0.63;;
62588;SDS011;58504;48.770;9.148;2022-11-18T04:08:01;0.68;;;0.32;;
62588;SDS011;58504;48.770;9.148;2022-11-18T04:10:32;0.20;;;0.20;;
62588;SDS011;58504;48.770;9.148;2022-11-18T04:13:03;0.35;;;0.35;;
62588;SDS011;58504;48.770;9.148;2022-11-18T04:15:36;0.17;;;0.17;;
62588;SDS011;58504;48.770;9.148;2022-11-18T04:18:05;0.82;;;0.15;;
62588;SDS011;58504;48.770;9.148;2022-11-18T04:20:32;0.60;;;0.50;;
62588;SDS011;58504;48.770;9.148;2022-11-18T04:23:01;0.28;;;0.28;;
62588;SDS011;58504;48.770;9.148;2022-11-18T04:25:28;0.82;;;0.32;;
62588;SDS011;58504;48.770;9.148;2022-11-18T04:27:55;0.32;;;0.32;;
62588;SDS011;58504;48.770;9.148;2022-11-18T04:30:22;0.65;;;0.52;;
62588;SDS011;58504;48.770;9.148;2022-11-18T04:32:50;0.20;;;0.20;;
62588;SDS011;58504;48.770;9.148;2022-11-18T04:35:17;0.38;;;0.32;;
62588;SDS011;58504;48.770;9.148;2022-11-18T04:37:44;0.40;;;0.40;;
62588;SDS011;58504;48.770;9.148;2022-11-18T04:40:11;0.10;;;0.10;;
62588;SDS011;58504;48.770;9.148;2022-11-18T04:42:38;0.55;;;0.47;;
62588;SDS011;58504;48.770;9.148;2022-11-18T04:45:05;0.30;;;0.30;;
62588;SDS011;58504;48.770;9.148;2022-11-18T04:47:33;0.32;;;0.32;;
62588;SDS011;58504;48.770;9.148;2022-11-18T04:50:01;0.77;;;0.40;;
62588;SDS011;58504;48.770;9.148;2022-11-18T04:52:28;0.20;;;0.20;;
62588;SDS011;58504;48.770;9.148;2022-11-18T04:54:55;0.20;;;0.20;;
62588;SDS011;58504;48.770;9.148;2022-11-18T04:57:21;0.20;;;0.20;;
62588;SDS011;58504;48.770;9.148;2022-11-18T04:59:48;0.20;;;0.20;;
62588;SDS011;58504;48.770;9.148;2022-11-18T05:02:15;0.20;;;0.20;;
62588;SDS011;58504;48.770;9.148;2022-11-18T05:04:42;0.20;;;0.20;;
62588;SDS011;58504;48.770;9.148;2022-11-18T05:07:12;0.20;;;0.20;;
62588;SDS011;58504;48.770;9.148;2022-11-18T05:09:39;0.20;;;0.20;;
62588;SDS011;58504;48.770;9.148;2022-11-18T05:12:08;0.20;;;0.15;;
62588;SDS011;58504;48.770;9.148;2022-11-18T05:14:54;0.20;;;0.20;;
62588;SDS011;58504;48.770;9.148;2022-11-18T05:17:21;0.22;;;0.22;;
62588;SDS011;58504;48.770;9.148;2022-11-18T05:19:48;0.20;;;0.20;;
62588;SDS011;58504;48.770;9.148;2022-11-18T05:22:16;0.10;;;0.10;;
62588;SDS011;58504;48.770;9.148;2022-11-18T05:24:43;0.40;;;0.20;;
62588;SDS011;58504;48.770;9.148;2022-11-18T05:27:10;0.22;;;0.22;;
62588;SDS011;58504;48.770;9.148;2022-11-18T05:29:36;0.15;;;0.15;;
62588;SDS011;58504;48.770;9.148;2022-11-18T05:32:04;0.47;;;0.40;;
62588;SDS011;58504;48.770;9.148;2022-11-18T05:34:30;0.40;;;0.40;;
62588;SDS011;58504;48.770;9.148;2022-11-18T05:36:57;0.25;;;0.20;;
62588;SDS011;58504;48.770;9.148;2022-11-18T05:39:26;0.30;;;0.30;;
62588;SDS011;58504;48.770;9.148;2022-11-18T05:41:53;0.17;;;0.17;;
62588;SDS011;58504;48.770;9.148;2022-11-18T05:44:37;0.13;;;0.13;;
62588;SDS011;58504;48.770;9.148;2022-11-18T05:47:04;0.32;;;0.32;;
62588;SDS011;58504;48.770;9.148;2022-11-18T05:49:31;0.10;;;0.10;;
62588;SDS011;58504;48.770;9.148;2022-11-18T05:51:57;0.35;;;0.35;;
62588;SDS011;58504;48.770;9.148;2022-11-18T05:54:24;0.00;;;0.00;;
62588;SDS011;58504;48.770;9.148;2022-11-18T05:56:53;0.30;;;0.30;;
62588;SDS011;58504;48.770;9.148;2022-11-18T05:59:20;0.20;;;0.20;;
62588;SDS011;58504;48.770;9.148;2022-11-18T06:01:47;0.45;;;0.35;;
62588;SDS011;58504;48.770;9.148;2022-11-18T06:04:19;0.43;;;0.43;;
62588;SDS011;58504;48.770;9.148;2022-11-18T06:06:51;0.25;;;0.25;;
62588;SDS011;58504;48.770;9.148;2022-11-18T06:09:22;0.17;;;0.17;;
62588;SDS011;58504;48.770;9.148;2022-11-18T06:11:55;0.20;;;0.20;;
62588;SDS011;58504;48.770;9.148;2022-11-18T06:14:25;0.90;;;0.30;;
62588;SDS011;58504;48.770;9.148;2022-11-18T06:16:57;0.32;;;0.32;;
62588;SDS011;58504;48.770;9.148;2022-11-18T06:19:28;0.10;;;0.10;;
62588;SDS011;58504;48.770;9.148;2022-11-18T06:21:56;0.25;;;0.25;;
62588;SDS011;58504;48.770;9.148;2022-11-18T06:24:24;0.35;;;0.35;;
62588;SDS011;58504;48.770;9.148;2022-11-18T06:26:52;0.32;;;0.30;;
62588;SDS011;58504;48.770;9.148;2022-11-18T06:29:19;0.40;;;0.40;;
62588;SDS011;58504;48.770;9.148;2022-11-18T06:31:47;0.10;;;0.10;;
62588;SDS011;58504;48.770;9.148;2022-11-18T06:34:13;0.35;;;0.35;;
62588;SDS011;58504;48.770;9.148;2022-11-18T06:36:40;0.75;;;0.30;;
62588;SDS011;58504;48.770;9.148;2022-11-18T06:39:07;0.65;;;0.32;;
62588;SDS011;58504;48.770;9.148;2022-11-18T06:41:33;0.17;;;0.15;;
62588;SDS011;58504;48.770;9.148;2022-11-18T06:44:02;0.20;;;0.20;;
62588;SDS011;58504;48.770;9.148;2022-11-18T06:46:27;0.10;;;0.10;;
62588;SDS011;58504;48.770;9.148;2022-11-18T06:49:12;0.20;;;0.20;;
62588;SDS011;58504;48.770;9.148;2022-11-18T06:51:38;0.20;;;0.20;;
62588;SDS011;58504;48.770;9.148;2022-11-18T06:54:05;0.22;;;0.22;;
62588;SDS011;58504;48.770;9.148;2022-11-18T06:56:33;0.20;;;0.20;;
62588;SDS011;58504;48.770;9.148;2022-11-18T06:59:00;1.90;;;0.30;;
62588;SDS011;58504;48.770;9.148;2022-11-18T07:01:28;0.10;;;0.10;;
62588;SDS011;58504;48.770;9.148;2022-11-18T07:03:56;0.05;;;0.05;;
62588;SDS011;58504;48.770;9.148;2022-11-18T07:06:25;0.30;;;0.25;;
62588;SDS011;58504;48.770;9.148;2022-11-18T07:08:53;0.20;;;0.20;;
62588;SDS011;58504;48.770;9.148;2022-11-18T07:11:20;0.40;;;0.13;;
62588;SDS011;58504;48.770;9.148;2022-11-18T07:13:48;0.30;;;0.30;;
62588;SDS011;58504;48.770;9.148;2022-11-18T07:16:17;0.32;;;0.30;;
62588;SDS011;58504;48.770;9.148;2022-11-18T07:18:45;0.35;;;0.30;;
62588;SDS011;58504;48.770;9.148;2022-11-18T07:21:14;0.35;;;0.25;;
62588;SDS011;58504;48.770;9.148;2022-11-18T07:23:43;0.40;;;0.40;;
62588;SDS011;58504;48.770;9.148;2022-11-18T07:26:11;0.40;;;0.40;;
62588;SDS011;58504;48.770;9.148;2022-11-18T07:28:38;0.30;;;0.30;;
62588;SDS011;58504;48.770;9.148;2022-11-18T07:31:05;0.30;;;0.30;;
62588;SDS011;58504;48.770;9.148;2022-11-18T07:33:35;0.47;;;0.40;;
62588;SDS011;58504;48.770;9.148;2022-11-18T07:36:02;1.67;;;0.68;;
62588;SDS011;58504;48.770;9.148;2022-11-18T07:38:31;1.65;;;0.65;;
62588;SDS011;58504;48.770;9.148;2022-11-18T07:41:02;0.50;;;0.50;;
62588;SDS011;58504;48.770;9.148;2022-11-18T07:43:30;0.90;;;0.55;;
62588;SDS011;58504;48.770;9.148;2022-11-18T07:45:57;0.73;;;0.55;;
62588;SDS011;58504;48.770;9.148;2022-11-18T07:48:24;6.28;;;0.80;;
62588;SDS011;58504;48.770;9.148;2022-11-18T07:50:52;1.85;;;1.00;;
62588;SDS011;58504;48.770;9.148;2022-11-18T07:53:18;1.05;;;0.98;;
62588;SDS011;58504;48.770;9.148;2022-11-18T07:55:45;2.05;;;1.05;;
62588;SDS011;58504;48.770;9.148;2022-11-18T07:58:12;1.55;;;0.90;;
62588;SDS011;58504;48.770;9.148;2022-11-18T08:00:39;2.45;;;1.13;;
62588;SDS011;58504;48.770;9.148;2022-11-18T08:03:05;3.42;;;0.82;;
62588;SDS011;58504;48.770;9.148;2022-11-18T08:05:32;1.00;;;0.85;;
62588;SDS011;58504;48.770;9.148;2022-11-18T08:08:00;1.02;;;0.77;;
62588;SDS011;58504;48.770;9.148;2022-11-18T08:10:27;1.67;;;1.05;;
62588;SDS011;58504;48.770;9.148;2022-11-18T08:12:55;4.55;;;1.40;;
62588;SDS011;58504;48.770;9.148;2022-11-18T08:15:22;2.55;;;1.20;;
62588;SDS011;58504;48.770;9.148;2022-11-18T08:17:49;1.95;;;1.10;;
62588;SDS011;58504;48.770;9.148;2022-11-18T08:20:16;3.22;;;1.50;;
62588;SDS011;58504;48.770;9.148;2022-11-18T08:22:43;5.07;;;1.35;;
62588;SDS011;58504;48.770;9.148;2022-11-18T08:25:11;1.60;;;1.10;;
62588;SDS011;58504;48.770;9.148;2022-11-18T08:27:38;1.58;;;1.30;;
62588;SDS011;58504;48.770;9.148;2022-11-18T08:30:05;5.35;;;1.45;;
62588;SDS011;58504;48.770;9.148;2022-11-18T08:32:32;1.50;;;1.00;;
62588;SDS011;58504;48.770;9.148;2022-11-18T08:34:59;2.35;;;1.10;;
62588;SDS011;58504;48.770;9.148;2022-11-18T08:37:26;1.45;;;1.23;;
62588;SDS011;58504;48.770;9.148;2022-11-18T08:39:52;7.65;;;1.50;;
62588;SDS011;58504;48.770;9.148;2022-11-18T08:42:20;1.30;;;1.20;;
62588;SDS011;58504;48.770;9.148;2022-11-18T08:44:49;2.05;;;1.17;;
62588;SDS011;58504;48.770;9.148;2022-11-18T08:47:16;2.03;;;1.40;;
62588;SDS011;58504;48.770;9.148;2022-11-18T08:49:43;2.38;;;1.25;;
62588;SDS011;58504;48.770;9.148;2022-11-18T08:52:09;2.83;;;1.48;;
62588;SDS011;58504;48.770;9.148;2022-11-18T08:54:36;1.63;;;1.10;;
62588;SDS011;58504;48.770;9.148;2022-11-18T08:57:03;1.48;;;0.75;;
62588;SDS011;58504;48.770;9.148;2022-11-18T08:59:31;1.20;;;1.00;;
62588;SDS011;58504;48.770;9.148;2022-11-18T09:01:58;1.65;;;1.02;;
62588;SDS011;58504;48.770;9.148;2022-11-18T09:04:24;1.25;;;1.02;;
62588;SDS011;58504;48.770;9.148;2022-11-18T09:06:51;2.15;;;1.17;;
62588;SDS011;58504;48.770;9.148;2022-11-18T09:09:18;1.58;;;1.00;;
62588;SDS011;58504;48.770;9.148;2022-11-18T09:11:45;1.55;;;1.10;;
62588;SDS011;58504;48.770;9.148;2022-11-18T09:14:11;0.65;;;0.63;;
62588;SDS011;58504;48.770;9.148;2022-11-18T09:16:40;1.40;;;1.00;;
62588;SDS011;58504;48.770;9.148;2022-11-18T09:19:06;4.03;;;0.90;;
62588;SDS011;58504;48.770;9.148;2022-11-18T09:21:33;1.42;;;0.93;;
62588;SDS011;58504;48.770;9.148;2022-11-18T09:24:01;1.58;;;1.13;;
62588;SDS011;58504;48.770;9.148;2022-11-18T09:26:29;3.08;;;1.30;;
62588;SDS011;58504;48.770;9.148;2022-11-18T09:28:56;1.27;;;0.77;;
62588;SDS011;58504;48.770;9.148;2022-11-18T09:31:23;1.13;;;0.90;;
62588;SDS011;58504;48.770;9.148;2022-11-18T09:33:51;1.63;;;1.05;;
62588;SDS011;58504;48.770;9.148;2022-11-18T09:36:18;1.65;;;0.95;;
62588;SDS011;58504;48.770;9.148;2022-11-18T09:38:46;1.13;;;0.80;;
62588;SDS011;58504;48.770;9.148;2022-11-18T09:41:16;1.05;;;0.77;;
62588;SDS011;58504;48.770;9.148;2022-11-18T09:43:53;2.88;;;1.05;;
62588;SDS011;58504;48.770;9.148;2022-11-18T09:46:29;0.75;;;0.75;;
62588;SDS011;58504;48.770;9.148;2022-11-18T09:49:01;0.82;;;0.80;;
62588;SDS011;58504;48.770;9.148;2022-11-18T09:51:40;1.48;;;0.98;;
62588;SDS011;58504;48.770;9.148;2022-11-18T09:54:13;1.48;;;1.38;;
62588;SDS011;58504;48.770;9.148;2022-11-18T09:56:45;0.80;;;0.70;;
62588;SDS011;58504;48.770;9.148;2022-11-18T09:59:12;3.00;;;1.38;;
62588;SDS011;58504;48.770;9.148;2022-11-18T10:01:42;1.00;;;0.75;;
62588;SDS011;58504;48.770;9.148;2022-11-18T10:04:16;0.65;;;0.65;;
62588;SDS011;58504;48.770;9.148;2022-11-18T10:06:44;3.70;;;0.82;;
62588;SDS011;58504;48.770;9.148;2022-11-18T10:09:17;0.77;;;0.60;;
62588;SDS011;58504;48.770;9.148;2022-11-18T10:11:55;0.73;;;0.70;;
62588;SDS011;58504;48.770;9.148;2022-11-18T10:14:38;1.77;;;0.93;;
62588;SDS011;58504;48.770;9.148;2022-11-18T10:17:16;1.05;;;0.63;;
62588;SDS011;58504;48.770;9.148;2022-11-18T10:20:00;0.50;;;0.50;;
62588;SDS011;58504;48.770;9.148;2022-11-18T10:22:38;1.70;;;0.55;;
62588;SDS011;58504;48.770;9.148;2022-11-18T10:25:13;1.38;;;0.70;;
62588;SDS011;58504;48.770;9.148;2022-11-18T10:27:42;0.85;;;0.73;;
62588;SDS011;58504;48.770;9.148;2022-11-18T10:30:10;1.27;;;0.90;;
62588;SDS011;58504;48.770;9.148;2022-11-18T10:32:51;2.20;;;0.60;;
62588;SDS011;58504;48.770;9.148;2022-11-18T10:35:23;0.60;;;0.60;;
62588;SDS011;58504;48.770;9.148;2022-11-18T10:38:03;2.05;;;0.55;;
62588;SDS011;58504;48.770;9.148;2022-11-18T10:40:32;0.95;;;0.95;;
62588;SDS011;58504;48.770;9.148;2022-11-18T10:42:59;1.13;;;0.80;;
62588;SDS011;58504;48.770;9.148;2022-11-18T10:45:27;0.98;;;0.70;;
62588;SDS011;58504;48.770;9.148;2022-11-18T10:47:56;0.52;;;0.43;;
62588;SDS011;58504;48.770;9.148;2022-11-18T10:50:28;0.60;;;0.60;;
62588;SDS011;58504;48.770;9.148;2022-11-18T10:52:57;0.75;;;0.60;;
62588;SDS011;58504;48.770;9.148;2022-11-18T10:55:24;0.40;;;0.40;;
62588;SDS011;58504;48.770;9.148;2022-11-18T10:57:56;0.82;;;0.50;;
62588;SDS011;58504;48.770;9.148;2022-11-18T11:00:39;0.60;;;0.52;;
62588;SDS011;58504;48.770;9.148;2022-11-18T11:06:21;1.08;;;0.70;;
62588;SDS011;58504;48.770;9.148;2022-11-18T11:08:57;0.82;;;0.55;;
62588;SDS011;58504;48.770;9.148;2022-11-18T11:11:27;0.40;;;0.40;;
62588;SDS011;58504;48.770;9.148;2022-11-18T11:13:57;2.38;;;0.50;;
62588;SDS011;58504;48.770;9.148;2022-11-18T11:16:30;1.05;;;0.85;;
62588;SDS011;58504;48.770;9.148;2022-11-18T11:19:02;0.60;;;0.60;;
62588;SDS011;58504;48.770;9.148;2022-11-18T11:21:32;2.92;;;0.93;;
62588;SDS011;58504;48.770;9.148;2022-11-18T11:23:58;0.40;;;0.40;;
62588;SDS011;58504;48.770;9.148;2022-11-18T11:26:28;0.85;;;0.60;;
62588;SDS011;58504;48.770;9.148;2022-11-18T11:29:01;0.70;;;0.52;;
62588;SDS011;58504;48.770;9.148;2022-11-18T11:31:35;0.90;;;0.47;;
62588;SDS011;58504;48.770;9.148;2022-11-18T11:34:10;0.40;;;0.35;;
62588;SDS011;58504;48.770;9.148;2022-11-18T11:36:52;1.58;;;0.70;;
62588;SDS011;58504;48.770;9.148;2022-11-18T11:39:36;1.73;;;0.60;;
62588;SDS011;58504;48.770;9.148;2022-11-18T11:42:14;0.85;;;0.70;;
62588;SDS011;58504;48.770;9.148;2022-11-18T11:44:54;0.75;;;0.75;;
62588;SDS011;58504;48.770;9.148;2022-11-18T11:47:31;0.95;;;0.63;;
62588;SDS011;58504;48.770;9.148;2022-11-18T11:50:16;0.43;;;0.30;;
62588;SDS011;58504;48.770;9.148;2022-11-18T11:52:52;0.70;;;0.52;;
62588;SDS011;58504;48.770;9.148;2022-11-18T11:55:36;2.75;;;0.93;;
62588;SDS011;58504;48.770;9.148;2022-11-18T11:58:18;0.43;;;0.40;;
62588;SDS011;58504;48.770;9.148;2022-11-18T12:00:59;0.28;;;0.28;;
62588;SDS011;58504;48.770;9.148;2022-11-18T12:03:43;1.08;;;1.00;;
62588;SDS011;58504;48.770;9.148;2022-11-18T12:06:11;0.70;;;0.60;;
62588;SDS011;58504;48.770;9.148;2022-11-18T12:08:42;1.85;;;0.57;;
62588;SDS011;58504;48.770;9.148;2022-11-18T12:11:16;2.03;;;1.02;;
62588;SDS011;58504;48.770;9.148;2022-11-18T12:13:52;1.42;;;0.90;;
62588;SDS011;58504;48.770;9.148;2022-11-18T12:16:27;1.75;;;0.73;;
62588;SDS011;58504;48.770;9.148;2022-11-18T12:19:02;0.77;;;0.75;;
62588;SDS011;58504;48.770;9.148;2022-11-18T12:21:52;0.63;;;0.63;;
62588;SDS011;58504;48.770;9.148;2022-11-18T12:24:27;1.95;;;0.70;;
62588;SDS011;58504;48.770;9.148;2022-11-18T12:26:56;0.98;;;0.60;;
62588;SDS011;58504;48.770;9.148;2022-11-18T12:29:24;6.55;;;0.60;;
62588;SDS011;58504;48.770;9.148;2022-11-18T12:32:01;1.85;;;0.60;;
62588;SDS011;58504;48.770;9.148;2022-11-18T12:34:30;0.50;;;0.47;;
62588;SDS011;58504;48.770;9.148;2022-11-18T12:40:07;0.38;;;0.30;;
62588;SDS011;58504;48.770;9.148;2022-11-18T12:42:36;5.60;;;0.68;;
62588;SDS011;58504;48.770;9.148;2022-11-18T12:48:26;2.97;;;0.65;;
62588;SDS011;58504;48.770;9.148;2022-11-18T12:50:55;3.53;;;0.93;;
62588;SDS011;58504;48.770;9.148;2022-11-18T12:53:30;1.45;;;0.85;;
62588;SDS011;58504;48.770;9.148;2022-11-18T12:56:10;0.82;;;0.60;;
62588;SDS011;58504;48.770;9.148;2022-11-18T12:58:46;1.90;;;0.50;;
62588;SDS011;58504;48.770;9.148;2022-11-18T13:01:15;1.60;;;0.73;;
62588;SDS011;58504;48.770;9.148;2022-11-18T13:03:43;0.90;;;0.70;;
62588;SDS011;58504;48.770;9.148;2022-11-18T13:06:16;1.00;;;0.60;;
62588;SDS011;58504;48.770;9.148;2022-11-18T13:08:53;0.90;;;0.82;;
62588;SDS011;58504;48.770;9.148;2022-11-18T13:11:24;1.05;;;0.70;;
62588;SDS011;58504;48.770;9.148;2022-11-18T13:14:13;0.80;;;0.60;;
62588;SDS011;58504;48.770;9.148;2022-11-18T13:16:59;1.05;;;0.65;;
62588;SDS011;58504;48.770;9.148;2022-11-18T13:19:52;0.30;;;0.30;;
62588;SDS011;58504;48.770;9.148;2022-11-18T13:22:21;0.50;;;0.50;;
62588;SDS011;58504;48.770;9.148;2022-11-18T13:25:19;0.68;;;0.68;;
62588;SDS011;58504;48.770;9.148;2022-11-18T13:27:50;0.70;;;0.70;;
62588;SDS011;58504;48.770;9.148;2022-11-18T13:30:23;0.40;;;0.40;;
62588;SDS011;58504;48.770;9.148;2022-11-18T13:32:51;0.82;;;0.50;;
62588;SDS011;58504;48.770;9.148;2022-11-18T13:35:23;0.60;;;0.60;;
62588;SDS011;58504;48.770;9.148;2022-11-18T13:37:52;0.68;;;0.57;;
62588;SDS011;58504;48.770;9.148;2022-11-18T13:40:21;0.32;;;0.30;;
62588;SDS011;58504;48.770;9.148;2022-11-18T13:42:51;0.45;;;0.45;;
62588;SDS011;58504;48.770;9.148;2022-11-18T13:45:18;0.40;;;0.40;;
62588;SDS011;58504;48.770;9.148;2022-11-18T13:47:49;0.95;;;0.70;;
62588;SDS011;58504;48.770;9.148;2022-11-18T13:50:19;0.30;;;0.30;;
62588;SDS011;58504;48.770;9.148;2022-11-18T13:52:52;0.65;;;0.45;;
62588;SDS011;58504;48.770;9.148;2022-11-18T13:55:26;0.73;;;0.50;;
62588;SDS011;58504;48.770;9.148;2022-11-18T13:57:57;1.17;;;0.57;;
62588;SDS011;58504;48.770;9.148;2022-11-18T14:00:28;0.50;;;0.50;;
62588;SDS011;58504;48.770;9.148;2022-11-18T14:02:58;0.70;;;0.70;;
62588;SDS011;58504;48.770;9.148;2022-11-18T14:05:27;1.23;;;0.50;;
62588;SDS011;58504;48.770;9.148;2022-11-18T14:07:55;1.65;;;0.75;;
62588;SDS011;58504;48.770;9.148;2022-11-18T14:10:33;0.55;;;0.55;;
62588;SDS011;58504;48.770;9.148;2022-11-18T14:13:18;3.78;;;0.60;;
62588;SDS011;58504;48.770;9.148;2022-11-18T14:15:49;1.30;;;0.60;;
62588;SDS011;58504;48.770;9.148;2022-11-18T14:18:18;2.10;;;0.63;;
62588;SDS011;58504;48.770;9.148;2022-11-18T14:20:49;0.50;;;0.40;;
62588;SDS011;58504;48.770;9.148;2022-11-18T14:23:17;0.90;;;0.50;;
62588;SDS011;58504;48.770;9.148;2022-11-18T14:25:50;0.85;;;0.70;;
62588;SDS011;58504;48.770;9.148;2022-11-18T14:28:20;0.40;;;0.38;;
62588;SDS011;58504;48.770;9.148;2022-11-18T14:30:57;0.50;;;0.50;;
62588;SDS011;58504;48.770;9.148;2022-11-18T14:33:26;0.30;;;0.30;;
62588;SDS011;58504;48.770;9.148;2022-11-18T14:35:54;0.47;;;0.43;;
62588;SDS011;58504;48.770;9.148;2022-11-18T14:38:24;1.00;;;0.77;;
62588;SDS011;58504;48.770;9.148;2022-11-18T14:41:04;0.38;;;0.38;;
62588;SDS011;58504;48.770;9.148;2022-11-18T14:43:33;0.68;;;0.45;;
62588;SDS011;58504;48.770;9.148;2022-11-18T14:46:01;0.75;;;0.57;;
62588;SDS011;58504;48.770;9.148;2022-11-18T14:48:29;0.47;;;0.47;;
62588;SDS011;58504;48.770;9.148;2022-11-18T14:50:57;0.38;;;0.38;;
62588;SDS011;58504;48.770;9.148;2022-11-18T14:53:24;0.57;;;0.57;;
62588;SDS011;58504;48.770;9.148;2022-11-18T14:55:51;0.75;;;0.55;;
62588;SDS011;58504;48.770;9.148;2022-11-18T14:58:19;1.95;;;0.50;;
62588;SDS011;58504;48.770;9.148;2022-11-18T15:00:47;0.68;;;0.65;;
62588;SDS011;58504;48.770;9.148;2022-11-18T15:03:14;2.38;;;0.50;;
62588;SDS011;58504;48.770;9.148;2022-11-18T15:05:41;5.82;;;0.60;;
62588;SDS011;58504;48.770;9.148;2022-11-18T15:08:08;0.50;;;0.50;;
62588;SDS011;58504;48.770;9.148;2022-11-18T15:10:35;0.20;;;0.20;;
62588;SDS011;58504;48.770;9.148;2022-11-18T15:13:02;0.30;;;0.20;;
62588;SDS011;58504;48.770;9.148;2022-11-18T15:15:29;0.90;;;0.50;;
62588;SDS011;58504;48.770;9.148;2022-11-18T15:17:57;0.55;;;0.45;;
62588;SDS011;58504;48.770;9.148;2022-11-18T15:20:24;1.65;;;0.47;;
62588;SDS011;58504;48.770;9.148;2022-11-18T15:22:51;0.52;;;0.52;;
62588;SDS011;58504;48.770;9.148;2022-11-18T15:25:18;0.85;;;0.40;;